Terminal Aerodrome Forecast
Issued by NWS

Home | Current Version | Previous Version | Text Only | Print | Product List | Glossary On
Versions: 1 2 3 4 5 6 7 8 9 10 11 12
567
FTUS46 KMTR 241726
TAFMRY
TAF
KMRY 241726Z 2418/2518 03004KT P6SM FEW010 SCT120
     FM241900 32005KT P6SM SCT150
     FM250100 VRB02KT P6SM BKN150
     FM250900 09003KT P6SM FEW150 SCT200=

USA.gov is the U.S. government's official web portal to all federal, state and local government web resources and services.